createdAt,value
2018-05-17T00:01:29.923Z,91.91
2018-05-17T00:03:57.550Z,92.98
2018-05-17T00:06:25.133Z,93.57
2018-05-17T00:08:52.774Z,92.12
2018-05-17T00:11:20.392Z,92.38
2018-05-17T00:13:47.981Z,92.53
2018-05-17T00:16:15.560Z,92.48
2018-05-17T00:18:43.175Z,93.83
2018-05-17T00:21:10.760Z,94.78
2018-05-17T00:23:38.349Z,94.42
2018-05-17T00:26:05.973Z,94.33
2018-05-17T00:28:33.563Z,93.63
2018-05-17T00:31:01.142Z,94.36
2018-05-17T00:33:28.744Z,94.39
2018-05-17T00:35:56.344Z,94.49
2018-05-17T00:38:24.595Z,94.71
2018-05-17T00:40:52.205Z,94.47
2018-05-17T00:43:19.897Z,94.98
2018-05-17T00:45:47.493Z,95.93
2018-05-17T00:48:16.876Z,96.14
2018-05-17T00:50:44.450Z,96.29
2018-05-17T00:53:23.655Z,95.69
2018-05-17T00:55:51.509Z,96.06
2018-05-17T00:58:19.955Z,95.87
2018-05-17T01:00:47.569Z,95.82
2018-05-17T01:03:15.161Z,96.95
2018-05-17T01:05:42.749Z,97.57
2018-05-17T01:08:11.359Z,97.91
2018-05-17T01:10:38.978Z,98.21
2018-05-17T01:13:06.573Z,97.06
2018-05-17T01:15:34.212Z,96.51
2018-05-17T01:18:01.803Z,96.14
2018-05-17T01:20:29.378Z,95.86
2018-05-17T01:22:57.055Z,95.96
2018-05-17T01:25:24.640Z,96.12
2018-05-17T01:27:52.234Z,95.85
2018-05-17T01:30:19.855Z,95.90
2018-05-17T01:32:47.438Z,96.30
2018-05-17T01:35:15.020Z,96.46
2018-05-17T01:37:54.400Z,96.51
2018-05-17T01:40:22.024Z,96.81
2018-05-17T01:42:49.763Z,96.86
2018-05-17T01:45:17.370Z,96.97
2018-05-17T01:47:44.952Z,96.61
2018-05-17T01:50:13.283Z,96.93
2018-05-17T01:52:40.878Z,97.00
2018-05-17T01:55:08.493Z,96.89
2018-05-17T01:57:36.872Z,96.63
2018-05-17T02:00:04.593Z,96.40
2018-05-17T02:02:32.178Z,96.27
2018-05-17T02:04:59.768Z,96.57
2018-05-17T02:07:27.404Z,96.57
2018-05-17T02:09:54.984Z,96.99
2018-05-17T02:12:22.570Z,97.26
2018-05-17T02:14:50.197Z,96.98
2018-05-17T02:17:17.770Z,96.53
2018-05-17T02:19:45.350Z,96.16
2018-05-17T02:22:12.965Z,96.56
2018-05-17T02:24:40.573Z,96.95
2018-05-17T02:27:08.155Z,96.46
2018-05-17T02:29:35.781Z,97.04
2018-05-17T02:32:03.367Z,97.10
2018-05-17T02:37:03.735Z,96.83
2018-05-17T02:39:31.324Z,96.75
2018-05-17T02:41:58.909Z,97.06
2018-05-17T02:44:26.538Z,97.07
2018-05-17T02:46:54.128Z,96.93
2018-05-17T02:49:21.711Z,96.96
2018-05-17T02:51:49.330Z,97.28
2018-05-17T02:54:16.916Z,97.34
2018-05-17T02:56:44.507Z,97.10
2018-05-17T02:59:12.136Z,97.23
2018-05-17T03:01:39.725Z,97.04
2018-05-17T03:04:07.309Z,97.08
2018-05-17T03:06:34.941Z,97.53
2018-05-17T03:09:02.522Z,97.94
2018-05-17T03:11:30.108Z,97.51
2018-05-17T03:13:57.720Z,95.70
2018-05-17T03:16:25.322Z,94.66
2018-05-17T03:18:52.891Z,93.88
2018-05-17T03:21:20.511Z,93.52
2018-05-17T03:23:48.088Z,93.32
2018-05-17T03:26:15.673Z,93.47
2018-05-17T03:28:43.307Z,93.76
2018-05-17T03:31:10.884Z,93.67
2018-05-17T03:33:38.461Z,93.07
2018-05-17T03:36:06.071Z,92.60
2018-05-17T03:38:33.638Z,92.06
2018-05-17T03:41:01.201Z,92.25
2018-05-17T03:43:28.805Z,92.99
2018-05-17T03:45:56.387Z,92.79
2018-05-17T03:48:24.007Z,93.18
2018-05-17T03:50:51.620Z,92.42
2018-05-17T03:53:19.206Z,92.62
2018-05-17T03:55:46.780Z,92.11
2018-05-17T03:58:14.387Z,91.45
2018-05-17T04:00:53.613Z,91.69
2018-05-17T04:03:32.861Z,91.31
2018-05-17T04:06:12.151Z,91.74
2018-05-17T04:08:39.797Z,91.63
2018-05-17T04:11:07.367Z,90.39
2018-05-17T04:13:34.959Z,89.82
2018-05-17T04:16:02.581Z,87.46
2018-05-17T04:18:30.153Z,81.00
2018-05-17T04:20:57.737Z,77.77
2018-05-17T04:23:25.351Z,74.12
2018-05-17T04:25:52.938Z,68.45
2018-05-17T04:28:20.522Z,68.30
2018-05-17T04:30:48.150Z,68.32
2018-05-17T04:33:15.766Z,70.66
2018-05-17T04:35:43.348Z,71.95
2018-05-17T04:38:10.967Z,66.56
2018-05-17T04:40:38.543Z,63.44
2018-05-17T04:43:06.140Z,62.55
2018-05-17T04:45:33.754Z,58.36
2018-05-17T04:48:01.364Z,55.71
2018-05-17T04:50:28.952Z,54.66
2018-05-17T04:52:56.566Z,57.27
2018-05-17T04:55:24.137Z,55.21
2018-05-17T04:57:51.724Z,52.85
2018-05-17T05:00:19.330Z,55.07
2018-05-17T05:02:46.973Z,55.19
2018-05-17T05:05:14.535Z,57.20
2018-05-17T05:07:42.271Z,58.86
2018-05-17T05:10:09.857Z,59.40
2018-05-17T05:12:37.432Z,57.31
2018-05-17T05:15:05.166Z,55.64
2018-05-17T05:17:32.760Z,55.41
2018-05-17T05:20:00.337Z,52.97
2018-05-17T05:22:27.956Z,53.08
2018-05-17T05:24:55.536Z,56.75
2018-05-17T05:27:23.128Z,56.74
2018-05-17T05:29:50.743Z,56.37
2018-05-17T05:32:18.325Z,55.74
2018-05-17T05:34:45.900Z,55.44
2018-05-17T05:37:13.523Z,52.60
2018-05-17T05:39:41.103Z,45.95
2018-05-17T05:42:08.670Z,48.14
2018-05-17T05:44:36.283Z,47.33
2018-05-17T05:47:03.900Z,42.78
2018-05-17T05:49:31.544Z,38.62
2018-05-17T05:51:59.200Z,35.56
2018-05-17T05:54:26.820Z,35.28
2018-05-17T05:56:54.426Z,34.10
2018-05-17T05:59:22.086Z,32.42
2018-05-17T06:01:49.695Z,31.91
2018-05-17T06:04:17.277Z,36.55
2018-05-17T06:06:44.936Z,38.27
2018-05-17T06:09:12.523Z,37.14
2018-05-17T06:11:40.123Z,35.62
2018-05-17T06:14:07.735Z,37.93
2018-05-17T06:16:35.326Z,36.53
2018-05-17T06:19:02.912Z,36.42
2018-05-17T06:21:30.523Z,39.98
2018-05-17T06:23:58.110Z,37.67
2018-05-17T06:26:25.695Z,40.05
2018-05-17T06:28:53.316Z,42.73
2018-05-17T06:31:20.898Z,43.73
2018-05-17T06:33:48.506Z,42.32
2018-05-17T06:36:16.140Z,45.47
2018-05-17T06:38:43.717Z,42.17
2018-05-17T06:41:11.304Z,40.64
2018-05-17T06:43:38.934Z,43.21
2018-05-17T06:46:06.516Z,43.79
2018-05-17T06:48:34.088Z,45.93
2018-05-17T06:51:01.700Z,47.15
2018-05-17T06:53:29.284Z,49.67
2018-05-17T06:55:56.866Z,51.69
2018-05-17T06:58:24.511Z,51.67
2018-05-17T07:00:52.096Z,54.03
2018-05-17T07:03:19.694Z,50.34
2018-05-17T07:05:47.396Z,48.56
2018-05-17T07:08:14.989Z,47.98
2018-05-17T07:10:42.573Z,44.57
2018-05-17T07:13:10.180Z,43.19
2018-05-17T07:15:37.774Z,44.22
2018-05-17T07:18:05.508Z,47.80
2018-05-17T07:20:33.015Z,48.18
2018-05-17T07:23:00.599Z,49.53
2018-05-17T07:25:28.181Z,46.02
2018-05-17T07:27:55.814Z,44.06
2018-05-17T07:30:23.403Z,41.18
2018-05-17T07:32:50.981Z,40.72
2018-05-17T07:35:18.600Z,37.41
2018-05-17T07:37:46.204Z,38.80
2018-05-17T07:40:13.795Z,37.08
2018-05-17T07:42:41.413Z,34.97
2018-05-17T07:45:08.983Z,33.54
2018-05-17T07:47:36.563Z,32.85
2018-05-17T07:50:04.219Z,35.61
2018-05-17T07:52:31.789Z,35.27
2018-05-17T07:54:59.359Z,35.92
2018-05-17T07:57:27.077Z,36.63
2018-05-17T07:59:54.658Z,35.05
2018-05-17T08:02:22.234Z,34.34
2018-05-17T08:04:49.871Z,35.08
2018-05-17T08:07:17.505Z,35.14
2018-05-17T08:09:45.085Z,33.73
2018-05-17T08:12:12.704Z,33.11
2018-05-17T08:14:40.291Z,32.84
2018-05-17T08:17:07.866Z,31.24
2018-05-17T08:19:35.475Z,31.40
2018-05-17T08:22:03.216Z,32.50
2018-05-17T08:24:30.848Z,32.51
2018-05-17T08:26:58.473Z,32.58
2018-05-17T08:29:26.105Z,31.70
2018-05-17T08:31:53.691Z,31.90
2018-05-17T08:34:21.392Z,31.59
2018-05-17T08:36:49.081Z,32.00
2018-05-17T08:39:16.599Z,30.81
2018-05-17T08:41:44.228Z,30.90
2018-05-17T08:44:11.822Z,32.07
2018-05-17T08:46:39.415Z,32.72
2018-05-17T08:49:07.049Z,32.72
2018-05-17T08:51:34.645Z,31.61
2018-05-17T08:54:02.257Z,33.20
2018-05-17T08:56:29.907Z,31.20
2018-05-17T08:58:57.505Z,32.23
2018-05-17T09:01:25.098Z,30.40
2018-05-17T09:03:52.757Z,29.51
2018-05-17T09:06:20.345Z,29.71
2018-05-17T09:08:47.947Z,31.85
2018-05-17T09:11:15.573Z,30.58
2018-05-17T09:13:43.444Z,29.68
2018-05-17T09:16:11.006Z,27.92
2018-05-17T09:18:38.632Z,25.63
2018-05-17T09:21:06.222Z,26.53
2018-05-17T09:23:33.816Z,28.10
2018-05-17T09:26:01.436Z,28.76
2018-05-17T09:28:29.023Z,25.70
2018-05-17T09:30:56.608Z,27.93
2018-05-17T09:33:24.227Z,31.58
2018-05-17T09:35:51.819Z,33.13
2018-05-17T09:38:19.414Z,30.08
2018-05-17T09:40:47.015Z,31.80
2018-05-17T09:43:14.610Z,29.56
2018-05-17T09:45:42.368Z,29.23
2018-05-17T09:48:09.989Z,31.72
2018-05-17T09:50:37.591Z,30.67
2018-05-17T09:53:05.181Z,28.11
2018-05-17T09:55:32.813Z,26.88
2018-05-17T09:58:00.398Z,29.69
2018-05-17T10:00:28.024Z,30.50
2018-05-17T10:02:55.631Z,32.39
2018-05-17T10:05:23.210Z,34.19
2018-05-17T10:07:50.780Z,31.98
2018-05-17T10:10:18.402Z,30.44
2018-05-17T10:12:45.987Z,30.62
2018-05-17T10:15:13.577Z,30.52
2018-05-17T10:17:41.194Z,30.17
2018-05-17T10:20:08.982Z,34.35
2018-05-17T10:22:36.564Z,33.27
2018-05-17T10:25:04.214Z,34.55
2018-05-17T10:27:31.790Z,36.23
2018-05-17T10:29:59.359Z,36.58
2018-05-17T10:32:26.963Z,35.24
2018-05-17T10:34:54.518Z,37.27
2018-05-17T10:37:22.089Z,40.53
2018-05-17T10:39:49.708Z,41.05
2018-05-17T10:42:17.365Z,43.55
2018-05-17T10:44:44.895Z,41.92
2018-05-17T10:47:12.501Z,42.91
2018-05-17T10:49:40.053Z,45.01
2018-05-17T10:52:07.608Z,46.16
2018-05-17T10:54:35.252Z,46.50
2018-05-17T10:57:02.816Z,46.07
2018-05-17T10:59:30.377Z,48.20
2018-05-17T11:01:57.967Z,48.32
2018-05-17T11:04:25.532Z,48.07
2018-05-17T11:06:53.098Z,49.62
2018-05-17T11:09:20.703Z,47.14
2018-05-17T11:11:48.268Z,47.44
2018-05-17T11:14:15.852Z,47.45
2018-05-17T11:16:43.459Z,44.82
2018-05-17T11:19:11.020Z,44.95
2018-05-17T11:21:38.594Z,45.32
2018-05-17T11:24:06.223Z,44.72
2018-05-17T11:26:33.785Z,42.54
2018-05-17T11:29:01.363Z,41.56
2018-05-17T11:31:28.977Z,40.41
2018-05-17T11:33:56.555Z,40.03
2018-05-17T11:36:24.109Z,36.67
2018-05-17T11:38:51.694Z,38.23
2018-05-17T11:41:19.310Z,35.25
2018-05-17T11:43:46.876Z,36.24
2018-05-17T11:46:14.475Z,34.59
2018-05-17T11:48:42.050Z,35.73
2018-05-17T11:51:09.637Z,38.30
2018-05-17T11:53:37.249Z,38.43
2018-05-17T11:56:04.826Z,38.24
2018-05-17T11:58:32.401Z,39.36
2018-05-17T12:01:00.000Z,40.11
2018-05-17T12:03:27.558Z,42.10
2018-05-17T12:05:55.120Z,40.83
2018-05-17T12:08:22.724Z,41.39
2018-05-17T12:10:50.292Z,40.54
2018-05-17T12:13:17.988Z,39.19
2018-05-17T12:15:45.621Z,42.04
2018-05-17T12:18:13.184Z,41.82
2018-05-17T12:20:40.766Z,43.07
2018-05-17T12:23:08.415Z,41.63
2018-05-17T12:25:36.028Z,41.95
2018-05-17T12:28:03.600Z,43.85
2018-05-17T12:30:31.303Z,43.67
2018-05-17T12:32:58.848Z,46.21
2018-05-17T12:35:26.421Z,43.55
2018-05-17T12:37:54.015Z,44.34
2018-05-17T12:40:21.602Z,42.25
2018-05-17T12:42:49.302Z,44.84
2018-05-17T12:45:16.880Z,46.19
2018-05-17T12:47:44.440Z,45.44
2018-05-17T12:50:12.015Z,43.68
2018-05-17T12:52:39.612Z,43.35
2018-05-17T12:55:07.191Z,44.05
2018-05-17T12:57:34.764Z,44.91
2018-05-17T13:00:02.368Z,43.12
2018-05-17T13:02:30.575Z,42.39
2018-05-17T13:04:58.207Z,41.10
2018-05-17T13:07:25.799Z,40.89
2018-05-17T13:09:53.392Z,42.03
2018-05-17T13:12:20.966Z,42.26
2018-05-17T13:14:48.567Z,43.08
2018-05-17T13:17:16.123Z,45.41
2018-05-17T13:19:43.693Z,45.10
2018-05-17T13:22:11.322Z,43.71
2018-05-17T13:24:38.923Z,44.38
2018-05-17T13:27:06.509Z,43.55
2018-05-17T13:29:34.294Z,44.14
2018-05-17T13:32:01.878Z,44.98
2018-05-17T13:34:29.475Z,45.14
2018-05-17T13:36:57.139Z,45.97
2018-05-17T13:39:24.724Z,44.77
2018-05-17T13:41:52.292Z,47.37
2018-05-17T13:44:19.908Z,46.92
2018-05-17T13:46:47.486Z,47.68
2018-05-17T13:49:15.081Z,46.49
2018-05-17T13:51:42.692Z,47.87
2018-05-17T13:54:10.326Z,45.52
2018-05-17T13:56:37.888Z,45.01
2018-05-17T13:59:06.286Z,50.19
2018-05-17T14:01:34.115Z,48.02
2018-05-17T14:04:01.701Z,48.57
2018-05-17T14:06:29.311Z,46.98
2018-05-17T14:08:56.883Z,47.31
2018-05-17T14:11:24.462Z,47.29
2018-05-17T14:13:52.114Z,45.97
2018-05-17T14:16:19.671Z,45.14
2018-05-17T14:18:47.244Z,44.49
2018-05-17T14:21:14.866Z,45.24
2018-05-17T14:23:42.446Z,45.71
2018-05-17T14:26:10.025Z,43.21
2018-05-17T14:28:37.621Z,43.04
2018-05-17T14:31:05.197Z,42.31
2018-05-17T14:33:32.769Z,43.50
2018-05-17T14:36:00.376Z,43.88
2018-05-17T14:38:27.948Z,43.76
2018-05-17T14:40:55.526Z,42.73
2018-05-17T14:43:23.120Z,42.76
2018-05-17T14:45:50.697Z,43.87
2018-05-17T14:48:18.291Z,43.84
2018-05-17T14:50:45.896Z,44.43
2018-05-17T14:53:13.509Z,45.60
2018-05-17T14:55:41.078Z,45.77
2018-05-17T14:58:08.667Z,45.60
2018-05-17T15:00:36.276Z,47.72
2018-05-17T15:03:03.853Z,45.87
2018-05-17T15:05:31.567Z,48.06
2018-05-17T15:07:59.172Z,48.04
2018-05-17T15:10:26.727Z,47.06
2018-05-17T15:12:54.539Z,46.10
2018-05-17T15:15:22.156Z,45.82
2018-05-17T15:17:49.733Z,45.69
2018-05-17T15:20:17.312Z,48.20
2018-05-17T15:22:44.938Z,49.84
2018-05-17T15:25:13.350Z,50.31
2018-05-17T15:27:40.927Z,52.00
2018-05-17T15:30:08.564Z,52.83
2018-05-17T15:32:36.129Z,53.85
2018-05-17T15:35:03.689Z,54.27
2018-05-17T15:37:31.313Z,52.29
2018-05-17T15:39:58.890Z,51.36
2018-05-17T15:42:26.467Z,51.77
2018-05-17T15:44:54.055Z,55.27
2018-05-17T15:47:21.642Z,53.16
2018-05-17T15:49:49.204Z,54.69
2018-05-17T15:52:17.179Z,52.31
2018-05-17T15:54:44.760Z,51.48
2018-05-17T15:57:12.447Z,51.67
2018-05-17T15:59:40.063Z,52.25
2018-05-17T16:02:07.628Z,54.70
2018-05-17T16:04:35.200Z,52.82
2018-05-17T16:07:02.805Z,55.43
2018-05-17T16:09:30.412Z,55.86
2018-05-17T16:11:57.987Z,57.17
2018-05-17T16:14:25.597Z,55.29
2018-05-17T16:16:53.170Z,55.48
2018-05-17T16:19:20.731Z,54.93
2018-05-17T16:21:48.364Z,54.93
2018-05-17T16:24:15.979Z,56.34
2018-05-17T16:26:43.569Z,58.19
2018-05-17T16:29:11.245Z,57.17
2018-05-17T16:31:38.837Z,56.43
2018-05-17T16:34:06.471Z,57.32
2018-05-17T16:36:34.084Z,56.10
2018-05-17T16:39:01.698Z,57.95
2018-05-17T16:41:29.373Z,58.27
2018-05-17T16:43:57.053Z,58.33
2018-05-17T16:46:24.623Z,58.14
2018-05-17T16:48:53.267Z,59.17
2018-05-17T16:51:20.868Z,59.79
2018-05-17T16:53:48.446Z,58.31
2018-05-17T16:56:16.055Z,58.75
2018-05-17T16:58:43.718Z,58.54
2018-05-17T17:01:11.336Z,59.07
2018-05-17T17:03:38.908Z,60.13
2018-05-17T17:06:06.560Z,60.25
2018-05-17T17:08:34.127Z,62.80
2018-05-17T17:11:01.692Z,68.08
2018-05-17T17:13:29.363Z,73.99
2018-05-17T17:15:57.024Z,78.92
2018-05-17T17:18:24.606Z,81.30
2018-05-17T17:20:52.295Z,85.57
2018-05-17T17:23:19.823Z,87.06
2018-05-17T17:25:47.410Z,88.50
2018-05-17T17:28:15.082Z,88.70
2018-05-17T17:30:42.693Z,90.85
2018-05-17T17:33:10.281Z,92.37
2018-05-17T17:35:37.878Z,93.24
2018-05-17T17:38:05.436Z,92.28
2018-05-17T17:40:38.531Z,92.96
2018-05-17T17:43:06.121Z,95.14
2018-05-17T17:45:33.727Z,96.34
2018-05-17T17:48:01.356Z,97.15
2018-05-17T17:50:28.923Z,97.86
2018-05-17T17:52:56.495Z,98.35
2018-05-17T17:55:24.106Z,99.06
2018-05-17T17:57:51.676Z,100.00
2018-05-17T18:00:19.252Z,100.00
2018-05-17T18:02:46.864Z,100.00
2018-05-17T18:05:14.549Z,100.00
2018-05-17T18:07:42.119Z,100.00
2018-05-17T18:10:09.755Z,99.79
2018-05-17T18:12:37.338Z,98.80
2018-05-17T18:15:04.935Z,99.52
2018-05-17T18:17:33.464Z,99.44
2018-05-17T18:20:01.024Z,99.26
2018-05-17T18:22:28.612Z,100.00
2018-05-17T18:24:56.259Z,100.00
2018-05-17T18:27:23.806Z,99.27
2018-05-17T18:29:51.395Z,99.21
2018-05-17T18:32:19.023Z,99.56
2018-05-17T18:34:46.596Z,99.83
2018-05-17T18:37:14.183Z,99.79
2018-05-17T18:39:41.856Z,100.00
2018-05-17T18:42:09.433Z,100.00
2018-05-17T18:44:37.024Z,100.00
2018-05-17T18:47:04.664Z,100.00
2018-05-17T18:49:32.246Z,100.00
2018-05-17T18:51:59.840Z,100.00
2018-05-17T18:54:27.594Z,100.00
2018-05-17T18:56:55.187Z,100.00
2018-05-17T18:59:22.793Z,100.00
2018-05-17T19:01:50.489Z,100.00
2018-05-17T19:04:18.031Z,100.00
2018-05-17T19:06:45.616Z,100.00
2018-05-17T19:09:13.220Z,100.00
2018-05-17T19:11:40.815Z,100.00
2018-05-17T19:14:08.537Z,100.00
2018-05-17T19:16:36.128Z,100.00
2018-05-17T19:19:03.711Z,100.00
2018-05-17T19:21:31.295Z,100.00
2018-05-17T19:23:58.929Z,100.00
2018-05-17T19:26:26.518Z,100.00
2018-05-17T19:28:54.110Z,100.00
2018-05-17T19:31:21.864Z,100.00
2018-05-17T19:33:49.461Z,100.00
2018-05-17T19:36:17.075Z,100.00
2018-05-17T19:38:44.696Z,100.00
2018-05-17T19:41:12.281Z,100.00
2018-05-17T19:43:39.856Z,100.00
2018-05-17T19:46:07.454Z,100.00
2018-05-17T19:48:35.038Z,100.00
2018-05-17T19:51:02.646Z,100.00
2018-05-17T19:53:30.353Z,100.00
2018-05-17T19:55:57.951Z,100.00
2018-05-17T19:58:25.527Z,100.00
2018-05-17T20:00:53.249Z,100.00
2018-05-17T20:03:20.828Z,100.00
2018-05-17T20:05:48.420Z,100.00
2018-05-17T20:08:16.040Z,100.00
2018-05-17T20:10:43.648Z,100.00
2018-05-17T20:13:11.227Z,100.00
2018-05-17T20:15:38.878Z,100.00
2018-05-17T20:18:06.460Z,100.00
2018-05-17T20:20:34.042Z,100.00
2018-05-17T20:23:01.663Z,100.00
2018-05-17T20:25:29.235Z,100.00
2018-05-17T20:27:56.816Z,100.00
2018-05-17T20:30:24.452Z,100.00
2018-05-17T20:32:52.032Z,100.00
2018-05-17T20:35:19.833Z,100.00
2018-05-17T20:37:47.487Z,100.00
2018-05-17T20:40:15.069Z,100.00
2018-05-17T20:42:42.649Z,100.00
2018-05-17T20:45:10.260Z,100.00
2018-05-17T20:47:37.847Z,100.00
2018-05-17T20:50:05.445Z,100.00
2018-05-17T20:52:33.054Z,100.00
2018-05-17T20:55:00.656Z,100.00
2018-05-17T20:57:28.246Z,100.00
2018-05-17T20:59:55.876Z,100.00
2018-05-17T21:02:23.454Z,100.00
2018-05-17T21:04:51.061Z,100.00
2018-05-17T21:07:18.769Z,100.00
2018-05-17T21:09:46.360Z,100.00
2018-05-17T21:12:13.948Z,100.00
2018-05-17T21:14:41.576Z,100.00
2018-05-17T21:17:09.178Z,100.00
2018-05-17T21:19:36.768Z,100.00
2018-05-17T21:22:04.382Z,100.00
2018-05-17T21:24:31.981Z,100.00
2018-05-17T21:26:59.566Z,100.00
2018-05-17T21:29:27.200Z,100.00
2018-05-17T21:31:54.792Z,100.00
2018-05-17T21:34:22.392Z,100.00
2018-05-17T21:36:50.024Z,100.00
2018-05-17T21:39:17.614Z,100.00
2018-05-17T21:41:45.209Z,100.00
2018-05-17T21:44:12.854Z,100.00
2018-05-17T21:46:40.451Z,100.00
2018-05-17T21:49:08.051Z,100.00
2018-05-17T21:51:35.732Z,100.00
2018-05-17T21:54:03.347Z,100.00
2018-05-17T21:56:30.936Z,100.00
2018-05-17T21:58:58.563Z,100.00
2018-05-17T22:01:26.231Z,100.00
2018-05-17T22:03:53.829Z,100.00
2018-05-17T22:06:21.448Z,100.00
2018-05-17T22:08:49.031Z,100.00
2018-05-17T22:11:16.756Z,100.00
2018-05-17T22:13:44.375Z,100.00
2018-05-17T22:16:11.975Z,100.00
2018-05-17T22:18:39.552Z,100.00
2018-05-17T22:21:07.194Z,100.00
2018-05-17T22:23:34.789Z,100.00
2018-05-17T22:26:02.378Z,100.00
2018-05-17T22:28:30.015Z,100.00
2018-05-17T22:30:57.602Z,100.00
2018-05-17T22:33:25.185Z,100.00
2018-05-17T22:35:52.959Z,100.00
2018-05-17T22:38:20.495Z,100.00
2018-05-17T22:40:48.075Z,100.00
2018-05-17T22:43:15.780Z,100.00
2018-05-17T22:45:43.378Z,100.00
2018-05-17T22:48:11.001Z,100.00
2018-05-17T22:50:38.631Z,100.00
2018-05-17T22:53:06.210Z,100.00
2018-05-17T22:55:33.799Z,100.00
2018-05-17T22:58:13.172Z,100.00
2018-05-17T23:00:40.754Z,100.00
2018-05-17T23:03:08.349Z,100.00
2018-05-17T23:05:35.996Z,100.00
2018-05-17T23:08:03.585Z,100.00
2018-05-17T23:10:31.180Z,100.00
2018-05-17T23:12:58.806Z,100.00
2018-05-17T23:15:26.389Z,100.00
2018-05-17T23:17:53.981Z,100.00
2018-05-17T23:20:21.644Z,100.00
2018-05-17T23:22:49.222Z,100.00
2018-05-17T23:25:16.861Z,100.00
2018-05-17T23:27:44.523Z,100.00
2018-05-17T23:30:12.115Z,100.00
2018-05-17T23:32:39.707Z,100.00
2018-05-17T23:35:07.601Z,100.00
2018-05-17T23:37:35.194Z,100.00
2018-05-17T23:40:14.700Z,100.00
2018-05-17T23:42:42.297Z,100.00
2018-05-17T23:45:09.886Z,100.00
2018-05-17T23:47:37.524Z,100.00
2018-05-17T23:50:05.111Z,100.00
2018-05-17T23:52:32.702Z,100.00
2018-05-17T23:55:00.341Z,100.00
2018-05-17T23:57:27.942Z,100.00
2018-05-17T23:59:55.573Z,100.00
